createdAt,value
2018-10-21T00:01:07.169Z,19.63
2018-10-21T00:03:36.183Z,21.53
2018-10-21T00:06:05.040Z,20.60
2018-10-21T00:08:33.715Z,23.57
2018-10-21T00:11:02.429Z,26.93
2018-10-21T00:13:31.810Z,26.60
2018-10-21T00:16:00.518Z,23.40
2018-10-21T00:18:29.223Z,21.03
2018-10-21T00:20:58.039Z,22.83
2018-10-21T00:23:26.668Z,26.50
2018-10-21T00:25:55.412Z,22.83
2018-10-21T00:28:24.140Z,21.00
2018-10-21T00:30:52.864Z,23.73
2018-10-21T00:33:21.577Z,23.93
2018-10-21T00:35:50.296Z,23.73
2018-10-21T00:38:19.021Z,24.30
2018-10-21T00:40:48.126Z,24.10
2018-10-21T00:43:17.120Z,23.53
2018-10-21T00:45:45.833Z,20.23
2018-10-21T00:48:14.540Z,19.85
2018-10-21T00:50:43.296Z,22.70
2018-10-21T00:53:12.010Z,19.07
2018-10-21T00:55:40.873Z,20.00
2018-10-21T00:58:10.667Z,23.67
2018-10-21T01:00:39.402Z,22.57
2018-10-21T01:03:08.153Z,22.77
2018-10-21T01:05:36.848Z,25.00
2018-10-21T01:08:05.814Z,24.07
2018-10-21T01:10:36.339Z,22.17
2018-10-21T01:13:05.207Z,24.73
2018-10-21T01:15:33.938Z,21.70
2018-10-21T01:18:02.676Z,22.20
2018-10-21T01:20:31.383Z,20.33
2018-10-21T01:23:00.133Z,26.27
2018-10-21T01:25:28.853Z,27.77
2018-10-21T01:27:57.560Z,27.10
2018-10-21T01:30:26.296Z,26.93
2018-10-21T01:32:55.051Z,25.77
2018-10-21T01:35:23.728Z,23.23
2018-10-21T01:37:52.725Z,21.10
2018-10-21T01:40:32.281Z,21.90
2018-10-21T01:43:01.504Z,27.63
2018-10-21T01:45:30.226Z,24.30
2018-10-21T01:48:00.314Z,22.20
2018-10-21T01:50:29.050Z,23.20
2018-10-21T01:52:58.899Z,24.67
2018-10-21T01:55:28.025Z,27.37
2018-10-21T01:57:57.397Z,25.87
2018-10-21T02:00:26.735Z,24.73
2018-10-21T02:02:56.059Z,29.30
2018-10-21T02:05:24.964Z,26.40
2018-10-21T02:07:54.244Z,26.12
2018-10-21T02:10:23.245Z,29.13
2018-10-21T02:12:52.080Z,30.97
2018-10-21T02:15:20.789Z,29.63
2018-10-21T02:17:49.536Z,28.70
2018-10-21T02:20:18.948Z,29.00
2018-10-21T02:22:48.260Z,28.97
2018-10-21T02:25:17.037Z,26.40
2018-10-21T02:27:46.543Z,27.00
2018-10-21T02:30:17.718Z,29.37
2018-10-21T02:32:47.252Z,28.77
2018-10-21T02:35:16.789Z,28.83
2018-10-21T02:37:45.836Z,27.97
2018-10-21T02:41:28.605Z,24.63
2018-10-21T02:43:57.339Z,24.63
2018-10-21T02:46:26.284Z,27.97
2018-10-21T02:48:56.199Z,25.60
2018-10-21T02:51:25.110Z,28.07
2018-10-21T02:53:53.824Z,27.32
2018-10-21T02:56:22.540Z,28.47
2018-10-21T02:58:51.466Z,27.00
2018-10-21T03:01:20.192Z,29.17
2018-10-21T03:03:49.179Z,24.98
2018-10-21T03:06:17.987Z,27.07
2018-10-21T03:08:46.688Z,25.27
2018-10-21T03:11:15.523Z,29.25
2018-10-21T03:13:44.253Z,26.37
2018-10-21T03:16:12.973Z,24.45
2018-10-21T03:18:41.712Z,26.97
2018-10-21T03:21:10.446Z,25.68
2018-10-21T03:23:39.291Z,26.17
2018-10-21T03:26:07.981Z,28.00
2018-10-21T03:28:36.695Z,27.90
2018-10-21T03:31:05.426Z,27.93
2018-10-21T03:33:34.209Z,28.03
2018-10-21T03:36:02.898Z,27.13
2018-10-21T03:38:31.620Z,27.07
2018-10-21T03:41:00.344Z,26.17
2018-10-21T03:43:29.068Z,25.70
2018-10-21T03:45:57.805Z,28.70
2018-10-21T03:48:26.502Z,30.97
2018-10-21T03:50:55.699Z,28.27
2018-10-21T03:53:24.707Z,26.77
2018-10-21T03:55:53.445Z,28.90
2018-10-21T03:58:22.394Z,25.67
2018-10-21T04:00:51.379Z,26.47
2018-10-21T04:03:20.226Z,28.42
2018-10-21T04:05:48.957Z,31.53
2018-10-21T04:08:18.367Z,26.57
2018-10-21T04:10:47.353Z,30.83
2018-10-21T04:13:16.114Z,29.67
2018-10-21T04:15:45.126Z,33.53
2018-10-21T04:18:13.808Z,28.62
2018-10-21T04:20:42.579Z,28.10
2018-10-21T04:23:11.293Z,30.60
2018-10-21T04:25:40.560Z,30.70
2018-10-21T04:28:09.903Z,31.83
2018-10-21T04:30:39.656Z,31.60
2018-10-21T04:33:13.733Z,27.90
2018-10-21T04:35:42.772Z,30.10
2018-10-21T04:40:21.702Z,33.70
2018-10-21T04:42:51.104Z,31.80
2018-10-21T04:45:22.678Z,31.05
2018-10-21T04:47:51.404Z,27.37
2018-10-21T04:50:20.117Z,29.70
2018-10-21T04:52:48.839Z,31.97
2018-10-21T04:55:17.641Z,34.03
2018-10-21T04:57:47.523Z,30.90
2018-10-21T05:00:18.153Z,31.13
2018-10-21T05:02:46.885Z,31.63
2018-10-21T05:05:16.132Z,33.20
2018-10-21T05:07:44.852Z,32.17
2018-10-21T05:10:33.368Z,28.80
2018-10-21T05:13:02.389Z,31.97
2018-10-21T05:15:32.402Z,31.87
2018-10-21T05:18:01.164Z,31.37
2018-10-21T05:20:29.884Z,30.77
2018-10-21T05:22:58.601Z,32.80
2018-10-21T05:25:27.331Z,32.63
2018-10-21T05:27:56.091Z,32.23
2018-10-21T05:30:24.760Z,34.57
2018-10-21T05:32:53.483Z,35.50
2018-10-21T05:35:22.363Z,33.57
2018-10-21T05:37:51.214Z,36.42
2018-10-21T05:40:21.081Z,35.30
2018-10-21T05:42:50.169Z,32.73
2018-10-21T05:45:18.916Z,34.27
2018-10-21T05:47:47.644Z,36.90
2018-10-21T05:50:16.936Z,37.83
2018-10-21T05:52:45.699Z,36.73
2018-10-21T05:55:14.926Z,33.60
2018-10-21T05:57:43.642Z,34.73
2018-10-21T06:00:14.859Z,36.03
2018-10-21T06:02:43.882Z,34.20
2018-10-21T06:05:23.984Z,33.13
2018-10-21T06:07:52.712Z,32.87
2018-10-21T06:10:21.429Z,32.15
2018-10-21T06:12:50.152Z,38.60
2018-10-21T06:15:18.864Z,35.30
2018-10-21T06:17:47.644Z,33.33
2018-10-21T06:20:19.121Z,34.30
2018-10-21T06:22:48.168Z,34.20
2018-10-21T06:25:16.910Z,34.37
2018-10-21T06:27:45.656Z,34.83
2018-10-21T06:30:14.371Z,33.63
2018-10-21T06:32:43.079Z,34.13
2018-10-21T06:35:11.807Z,36.17
2018-10-21T06:37:40.521Z,37.47
2018-10-21T06:40:10.900Z,37.90
2018-10-21T06:42:39.687Z,38.03
2018-10-21T06:45:09.523Z,34.83
2018-10-21T06:47:38.228Z,33.70
2018-10-21T06:50:12.594Z,33.47
2018-10-21T06:52:41.328Z,35.17
2018-10-21T06:55:10.495Z,32.77
2018-10-21T06:57:39.417Z,36.37
2018-10-21T07:00:08.462Z,32.80
2018-10-21T07:02:43.790Z,34.30
2018-10-21T07:05:24.142Z,34.27
2018-10-21T07:07:53.021Z,36.33
2018-10-21T07:10:21.743Z,36.97
2018-10-21T07:12:50.953Z,38.03
2018-10-21T07:15:20.225Z,40.95
2018-10-21T07:17:48.888Z,38.23
2018-10-21T07:20:17.611Z,41.48
2018-10-21T07:22:46.323Z,37.47
2018-10-21T07:25:15.144Z,39.35
2018-10-21T07:27:43.870Z,41.23
2018-10-21T07:30:13.285Z,42.45
2018-10-21T07:32:42.912Z,41.10
2018-10-21T07:35:13.592Z,40.67
2018-10-21T07:37:43.236Z,42.37
2018-10-21T07:40:12.918Z,42.43
2018-10-21T07:42:42.028Z,40.23
2018-10-21T07:45:10.759Z,42.17
2018-10-21T07:47:39.460Z,38.63
2018-10-21T07:50:14.742Z,39.33
2018-10-21T07:52:43.449Z,39.53
2018-10-21T07:55:16.505Z,41.35
2018-10-21T07:57:45.350Z,42.57
2018-10-21T08:00:14.020Z,43.98
2018-10-21T08:02:42.788Z,40.17
2018-10-21T08:05:23.195Z,43.03
2018-10-21T08:08:03.247Z,41.98
2018-10-21T08:10:31.979Z,38.13
2018-10-21T08:13:00.691Z,41.37
2018-10-21T08:15:29.401Z,45.47
2018-10-21T08:17:58.123Z,43.20
2018-10-21T08:20:26.832Z,43.03
2018-10-21T08:22:55.703Z,43.27
2018-10-21T08:25:24.560Z,39.97
2018-10-21T08:27:53.257Z,42.87
2018-10-21T08:30:22.105Z,42.00
2018-10-21T08:32:51.381Z,41.07
2018-10-21T08:35:20.769Z,40.38
2018-10-21T08:37:49.503Z,42.17
2018-10-21T08:40:18.404Z,44.50
2018-10-21T08:42:47.113Z,41.47
2018-10-21T08:45:16.839Z,40.50
2018-10-21T08:47:45.562Z,40.60
2018-10-21T08:50:14.738Z,41.10
2018-10-21T08:52:43.618Z,41.30
2018-10-21T08:55:12.831Z,42.83
2018-10-21T08:57:41.829Z,41.30
2018-10-21T09:00:15.308Z,38.27
2018-10-21T09:02:44.404Z,42.43
2018-10-21T09:05:14.423Z,40.83
2018-10-21T09:07:43.967Z,39.83
2018-10-21T09:10:14.001Z,41.73
2018-10-21T09:12:42.844Z,42.13
2018-10-21T09:15:13.949Z,40.98
2018-10-21T09:17:42.608Z,40.47
2018-10-21T09:20:13.496Z,40.47
2018-10-21T09:22:42.308Z,40.43
2018-10-21T09:25:11.914Z,38.50
2018-10-21T09:27:41.503Z,37.77
2018-10-21T09:30:11.560Z,39.37
2018-10-21T09:32:40.309Z,37.27
2018-10-21T09:35:11.448Z,39.10
2018-10-21T09:37:40.738Z,37.67
2018-10-21T09:40:11.128Z,39.57
2018-10-21T09:42:39.803Z,39.63
2018-10-21T09:45:10.077Z,38.17
2018-10-21T09:47:38.996Z,37.70
2018-10-21T09:53:04.680Z,37.00
2018-10-21T09:55:33.410Z,37.63
2018-10-21T09:58:02.185Z,37.40
2018-10-21T10:00:36.104Z,37.73
2018-10-21T10:03:06.511Z,37.47
2018-10-21T10:05:35.272Z,38.27
2018-10-21T10:08:05.025Z,37.45
2018-10-21T10:10:33.727Z,36.83
2018-10-21T10:13:02.491Z,37.40
2018-10-21T10:15:31.253Z,37.30
2018-10-21T10:17:59.948Z,36.87
2018-10-21T10:20:28.808Z,37.43
2018-10-21T10:22:57.613Z,35.40
2018-10-21T10:25:26.356Z,35.00
2018-10-21T10:27:55.090Z,34.50
2018-10-21T10:30:24.028Z,36.60
2018-10-21T10:32:52.697Z,34.03
2018-10-21T10:35:21.484Z,33.90
2018-10-21T10:37:50.213Z,35.43
2018-10-21T10:40:18.982Z,34.53
2018-10-21T10:42:47.662Z,33.03
2018-10-21T10:45:16.427Z,31.12
2018-10-21T10:47:45.145Z,31.68
2018-10-21T10:50:13.907Z,31.87
2018-10-21T10:52:43.983Z,30.53
2018-10-21T10:55:13.168Z,31.83
2018-10-21T10:57:41.847Z,32.77
2018-10-21T11:00:11.788Z,31.60
2018-10-21T11:02:40.728Z,29.43
2018-10-21T11:05:10.288Z,30.35
2018-10-21T11:07:39.169Z,31.50
2018-10-21T11:10:08.533Z,31.57
2018-10-21T11:12:37.293Z,29.53
2018-10-21T11:15:06.788Z,30.03
2018-10-21T11:17:35.504Z,28.63
2018-10-21T11:20:05.135Z,28.12
2018-10-21T11:22:33.906Z,27.33
2018-10-21T11:25:02.585Z,25.27
2018-10-21T11:27:33.574Z,25.80
2018-10-21T11:30:02.285Z,26.20
2018-10-21T11:32:31.060Z,24.70
2018-10-21T11:34:59.793Z,23.73
2018-10-21T11:37:28.656Z,23.17
2018-10-21T11:39:58.248Z,23.10
2018-10-21T11:42:26.971Z,24.50
2018-10-21T11:44:55.900Z,22.53
2018-10-21T11:47:28.897Z,22.27
2018-10-21T11:50:00.048Z,23.47
2018-10-21T11:52:28.803Z,22.43
2018-10-21T11:54:57.524Z,22.87
2018-10-21T11:57:26.547Z,22.27
2018-10-21T11:59:55.381Z,23.13
2018-10-21T12:02:24.091Z,22.23
2018-10-21T12:04:53.069Z,23.80
2018-10-21T12:07:22.061Z,22.20
2018-10-21T12:09:51.050Z,23.27
2018-10-21T12:12:19.770Z,21.02
2018-10-21T12:14:48.496Z,18.67
2018-10-21T12:17:17.220Z,18.50
2018-10-21T12:19:46.711Z,20.47
2018-10-21T12:22:15.500Z,17.87
2018-10-21T12:24:45.309Z,19.17
2018-10-21T12:27:14.289Z,18.23
2018-10-21T12:29:43.018Z,18.90
2018-10-21T12:32:12.184Z,15.73
2018-10-21T12:37:41.255Z,16.17
2018-10-21T12:40:10.555Z,15.03
2018-10-21T12:42:39.652Z,13.60
2018-10-21T12:45:09.874Z,13.37
2018-10-21T12:47:38.756Z,12.80
2018-10-21T12:50:08.192Z,14.20
2018-10-21T12:52:37.752Z,14.30
2018-10-21T12:55:07.509Z,13.10
2018-10-21T12:57:36.192Z,14.10
2018-10-21T13:00:06.728Z,14.28
2018-10-21T13:02:35.493Z,12.97
2018-10-21T13:05:04.729Z,14.50
2018-10-21T13:07:33.504Z,13.50
2018-10-21T13:10:02.508Z,14.63
2018-10-21T13:12:31.184Z,13.97
2018-10-21T13:15:00.172Z,15.00
2018-10-21T13:17:28.898Z,15.33
2018-10-21T13:19:57.609Z,14.33
2018-10-21T13:22:26.541Z,13.77
2018-10-21T13:24:55.267Z,13.93
2018-10-21T13:27:24.001Z,14.33
2018-10-21T13:29:52.910Z,13.97
2018-10-21T13:32:21.892Z,13.13
2018-10-21T13:34:50.896Z,13.23
2018-10-21T13:37:19.884Z,15.07
2018-10-21T13:39:48.621Z,17.40
2018-10-21T13:42:17.812Z,15.87
2018-10-21T13:44:46.517Z,13.50
2018-10-21T13:47:15.774Z,14.68
2018-10-21T13:49:44.495Z,13.03
2018-10-21T13:52:13.356Z,13.43
2018-10-21T13:54:42.228Z,14.43
2018-10-21T13:57:10.940Z,15.80
2018-10-21T13:59:39.888Z,14.23
2018-10-21T14:02:12.520Z,14.53
2018-10-21T14:04:41.232Z,15.07
2018-10-21T14:07:10.046Z,15.27
2018-10-21T14:09:38.712Z,15.23
2018-10-21T14:12:07.616Z,14.03
2018-10-21T14:14:36.328Z,14.40
2018-10-21T14:17:05.127Z,14.30
2018-10-21T14:19:33.844Z,14.00
2018-10-21T14:22:02.596Z,13.47
2018-10-21T14:24:31.343Z,13.87
2018-10-21T14:27:00.046Z,14.40
2018-10-21T14:29:28.756Z,14.03
2018-10-21T14:31:57.729Z,14.23
2018-10-21T14:34:26.453Z,14.77
2018-10-21T14:36:55.206Z,15.03
2018-10-21T14:39:23.912Z,14.37
2018-10-21T14:41:52.631Z,13.37
2018-10-21T14:44:21.357Z,14.43
2018-10-21T14:46:50.144Z,14.03
2018-10-21T14:49:18.870Z,15.13
2018-10-21T14:51:48.439Z,14.63
2018-10-21T14:54:17.318Z,14.80
2018-10-21T14:56:45.967Z,15.37
2018-10-21T14:59:14.691Z,14.47
2018-10-21T15:01:43.479Z,15.43
2018-10-21T15:04:12.261Z,13.07
2018-10-21T15:06:40.919Z,14.00
2018-10-21T15:09:11.352Z,13.93
2018-10-21T15:11:40.176Z,14.80
2018-10-21T15:14:09.422Z,14.10
2018-10-21T15:16:38.192Z,14.53
2018-10-21T15:19:07.084Z,13.83
2018-10-21T15:21:35.858Z,15.77
2018-10-21T15:24:05.149Z,15.37
2018-10-21T15:26:33.926Z,15.30
2018-10-21T15:29:03.035Z,15.57
2018-10-21T15:31:31.732Z,14.70
2018-10-21T15:34:00.501Z,16.17
2018-10-21T15:36:29.157Z,16.40
2018-10-21T15:38:57.867Z,23.43
2018-10-21T15:41:26.651Z,20.40
2018-10-21T15:43:55.366Z,17.80
2018-10-21T15:46:24.084Z,15.70
2018-10-21T15:48:53.135Z,14.10
2018-10-21T15:51:21.802Z,14.20
2018-10-21T15:53:50.524Z,14.60
2018-10-21T15:56:19.865Z,13.83
2018-10-21T15:58:48.801Z,16.10
2018-10-21T16:01:17.548Z,14.98
2018-10-21T16:03:46.576Z,15.63
2018-10-21T16:06:15.304Z,14.78
2018-10-21T16:08:44.510Z,13.27
2018-10-21T16:11:13.256Z,16.60
2018-10-21T16:13:42.013Z,16.83
2018-10-21T16:16:12.097Z,18.67
2018-10-21T16:18:40.716Z,17.27
2018-10-21T16:21:09.445Z,17.60
2018-10-21T16:23:38.439Z,16.00
2018-10-21T16:26:07.229Z,15.20
2018-10-21T16:28:35.922Z,13.77
2018-10-21T16:31:05.040Z,14.03
2018-10-21T16:33:49.615Z,13.37
2018-10-21T16:39:17.455Z,13.10
2018-10-21T16:44:37.324Z,14.27
2018-10-21T16:58:52.320Z,12.53
2018-10-21T17:01:21.327Z,14.00
2018-10-21T17:04:02.989Z,19.17
2018-10-21T17:06:32.428Z,25.23
2018-10-21T17:09:01.253Z,30.07
2018-10-21T17:11:30.651Z,23.63
2018-10-21T17:13:59.427Z,21.10
2018-10-21T17:16:28.145Z,21.33
2018-10-21T17:18:57.125Z,17.80
2018-10-21T17:21:25.852Z,17.27
2018-10-21T17:23:55.348Z,14.23
2018-10-21T17:26:24.097Z,14.63
2018-10-21T17:28:52.827Z,15.90
2018-10-21T17:31:22.052Z,15.68
2018-10-21T17:33:51.648Z,14.47
2018-10-21T17:36:20.628Z,14.77
2018-10-21T17:38:49.655Z,14.33
2018-10-21T17:41:19.312Z,12.50
2018-10-21T17:43:48.229Z,13.87
2018-10-21T17:46:17.327Z,14.97
2018-10-21T17:48:45.961Z,14.37
2018-10-21T17:51:14.690Z,16.10
2018-10-21T17:53:43.575Z,17.90
2018-10-21T17:56:12.316Z,17.57
2018-10-21T17:58:41.162Z,18.17
2018-10-21T18:01:10.289Z,24.85
2018-10-21T18:03:39.250Z,25.17
2018-10-21T18:06:07.976Z,21.87
2018-10-21T18:08:36.717Z,19.70
2018-10-21T18:11:06.239Z,18.13
2018-10-21T18:13:35.222Z,16.17
2018-10-21T18:16:05.315Z,17.45
2018-10-21T18:18:34.126Z,17.57
2018-10-21T18:21:03.133Z,17.20
2018-10-21T18:23:32.104Z,18.73
2018-10-21T18:26:00.837Z,21.33
2018-10-21T18:28:29.542Z,19.32
2018-10-21T18:30:58.303Z,15.83
2018-10-21T18:33:27.203Z,16.57
2018-10-21T18:35:55.928Z,19.37
2018-10-21T18:38:24.840Z,27.40
2018-10-21T18:40:54.205Z,23.90
2018-10-21T18:43:23.753Z,18.92
2018-10-21T18:45:52.490Z,16.77
2018-10-21T18:48:21.467Z,16.10
2018-10-21T18:50:50.143Z,15.53
2018-10-21T18:53:19.933Z,14.53
2018-10-21T18:55:49.324Z,15.77
2018-10-21T18:58:18.388Z,16.43
2018-10-21T19:00:47.318Z,15.77
2018-10-21T19:03:17.238Z,14.83
2018-10-21T19:05:46.217Z,15.83
2018-10-21T19:08:15.211Z,14.93
2018-10-21T19:10:44.190Z,15.08
2018-10-21T19:13:14.015Z,17.07
2018-10-21T19:15:42.720Z,16.77
2018-10-21T19:18:11.785Z,16.40
2018-10-21T19:20:42.204Z,17.17
2018-10-21T19:23:11.020Z,20.90
2018-10-21T19:25:39.768Z,18.53
2018-10-21T19:28:08.547Z,16.90
2018-10-21T19:30:37.383Z,17.07
2018-10-21T19:33:06.132Z,16.20
2018-10-21T19:35:35.036Z,17.40
2018-10-21T19:38:03.764Z,14.97
2018-10-21T19:40:33.383Z,16.83
2018-10-21T19:43:02.177Z,18.13
2018-10-21T19:45:30.832Z,16.50
2018-10-21T19:48:00.632Z,17.23
2018-10-21T19:50:29.376Z,17.37
2018-10-21T19:52:58.113Z,16.10
2018-10-21T19:55:26.904Z,15.90
2018-10-21T19:57:55.926Z,16.13
2018-10-21T20:00:24.685Z,17.10
2018-10-21T20:02:53.643Z,18.53
2018-10-21T20:05:22.361Z,17.27
2018-10-21T20:07:51.305Z,18.63
2018-10-21T20:10:20.087Z,18.90
2018-10-21T20:12:48.740Z,19.70
2018-10-21T20:15:17.472Z,23.67
2018-10-21T20:17:46.224Z,20.80
2018-10-21T20:20:14.940Z,20.02
2018-10-21T20:22:43.672Z,22.90
2018-10-21T20:25:12.458Z,23.57
2018-10-21T20:27:41.193Z,19.90
2018-10-21T20:30:11.048Z,19.12
2018-10-21T20:32:39.856Z,19.67
2018-10-21T20:35:10.389Z,21.33
2018-10-21T20:37:39.117Z,19.30
2018-10-21T20:40:08.530Z,19.00
2018-10-21T20:42:37.232Z,18.23
2018-10-21T20:45:07.408Z,21.63
2018-10-21T20:47:36.527Z,18.80
2018-10-21T20:50:05.342Z,18.13
2018-10-21T20:52:34.041Z,20.93
2018-10-21T20:55:02.768Z,19.57
2018-10-21T20:57:31.784Z,18.60
2018-10-21T21:00:00.538Z,19.07
2018-10-21T21:02:29.257Z,20.83
2018-10-21T21:04:57.988Z,19.47
2018-10-21T21:07:27.847Z,18.87
2018-10-21T21:09:56.586Z,19.98
2018-10-21T21:12:25.439Z,17.47
2018-10-21T21:14:54.157Z,18.97
2018-10-21T21:17:22.952Z,17.77
2018-10-21T21:19:51.672Z,17.32
2018-10-21T21:22:20.440Z,18.77
2018-10-21T21:25:08.628Z,16.87
2018-10-21T21:27:37.347Z,19.40
2018-10-21T21:30:06.641Z,21.87
2018-10-21T21:35:29.095Z,18.90
2018-10-21T21:37:57.832Z,22.70
2018-10-21T21:40:26.548Z,21.53
2018-10-21T21:42:55.256Z,20.37
2018-10-21T21:45:24.036Z,20.80
2018-10-21T21:47:53.020Z,19.47
2018-10-21T21:50:21.768Z,19.85
2018-10-21T21:52:50.507Z,19.50
2018-10-21T21:55:19.264Z,18.87
2018-10-21T22:00:22.947Z,20.45
2018-10-21T22:02:57.940Z,20.17
2018-10-21T22:05:26.671Z,17.97
2018-10-21T22:07:55.471Z,21.37
2018-10-21T22:10:24.453Z,21.10
2018-10-21T22:12:53.168Z,18.07
2018-10-21T22:15:22.148Z,20.20
2018-10-21T22:17:51.269Z,18.27
2018-10-21T22:20:19.995Z,19.52
2018-10-21T22:22:48.708Z,20.57
2018-10-21T22:25:17.433Z,18.20
2018-10-21T22:27:46.193Z,17.37
2018-10-21T22:30:14.981Z,19.27
2018-10-21T22:32:43.672Z,20.30
2018-10-21T22:35:12.399Z,19.12
2018-10-21T22:37:41.116Z,18.17
2018-10-21T22:40:09.880Z,18.10
2018-10-21T22:42:57.884Z,20.40
2018-10-21T22:45:26.612Z,19.63
2018-10-21T22:47:55.704Z,18.30
2018-10-21T22:50:24.444Z,18.90
2018-10-21T22:52:53.160Z,18.80
2018-10-21T22:55:21.887Z,18.12
2018-10-21T22:57:51.131Z,19.13
2018-10-21T23:00:19.855Z,17.55
2018-10-21T23:02:53.100Z,17.77
2018-10-21T23:05:22.310Z,17.80
2018-10-21T23:07:51.021Z,19.17
2018-10-21T23:10:19.777Z,18.17
2018-10-21T23:12:48.487Z,18.97
2018-10-21T23:15:17.231Z,20.67
2018-10-21T23:17:46.052Z,21.73
2018-10-21T23:20:14.761Z,20.10
2018-10-21T23:22:43.508Z,19.33
2018-10-21T23:25:12.213Z,18.40
2018-10-21T23:27:40.947Z,20.23
2018-10-21T23:30:09.670Z,20.02
2018-10-21T23:32:38.378Z,19.10
2018-10-21T23:35:07.751Z,17.55
2018-10-21T23:37:36.412Z,18.43
2018-10-21T23:40:06.824Z,19.10
2018-10-21T23:42:35.632Z,16.87
2018-10-21T23:45:05.348Z,18.30
2018-10-21T23:47:34.064Z,18.17
2018-10-21T23:50:02.819Z,20.10
2018-10-21T23:52:31.552Z,20.83
2018-10-21T23:55:00.568Z,20.50
2018-10-21T23:57:29.344Z,19.27
2018-10-21T23:59:58.078Z,19.33
